Time;durP1;ratioP1;P1;durP2;ratioP2;P2;SDS_P1;SDS_P2;PMS_P1;PMS_P2;Temp;Humidity;BMP_temperature;BMP_pressure;BME280_temperature;BME280_humidity;BME280_pressure;Samples;Min_cycle;Max_cycle;Signal;HPM_P1;HPM_P2
2023/02/14 00:00:53;;;;;;;;;;;;;;;23.77;29.07;96509.50;4969422;28;1330;-68
2023/02/14 00:03:19;;;;;;;;;;;;;;;23.76;29.24;96510.53;4981715;28;1422;-69
2023/02/14 00:05:44;;;;;;;;;;;;;;;23.77;29.60;96511.38;4971424;28;1894;-68
2023/02/14 00:08:09;;;;;;;;;;;;;;;23.77;29.01;96516.72;4960054;28;1332;-69
2023/02/14 00:10:35;;;;;;;;;;;;;;;23.76;29.34;96504.31;4960161;28;1426;-68
2023/02/14 00:13:00;;;;;;;;;;;;;;;23.77;29.50;96504.16;4956062;28;1442;-75
2023/02/14 00:15:25;;;;;;;;;;;;;;;23.78;28.97;96507.66;4958523;28;1324;-68
2023/02/14 00:17:53;;;;;;;;;;;;;;;23.80;29.15;96505.63;4963332;28;1669;-68
2023/02/14 00:20:18;;;;;;;;;;;;;;;23.79;29.09;96504.81;4956536;28;1323;-68
2023/02/14 00:22:44;;;;;;;;;;;;;;;23.81;29.15;96504.59;4958114;28;1470;-69
2023/02/14 00:25:09;;;;;;;;;;;;;;;23.80;29.38;96505.63;4973613;28;1910;-68
2023/02/14 00:27:35;;;;;;;;;;;;;;;23.78;29.86;96504.97;4977952;28;1516;-69
2023/02/14 00:30:02;;;;;;;;;;;;;;;23.82;29.40;96500.88;4973621;28;1421;-69
2023/02/14 00:32:27;;;;;;;;;;;;;;;23.84;29.56;96504.22;4958257;28;1485;-69
2023/02/14 00:34:53;;;;;;;;;;;;;;;23.87;29.52;96503.00;4957310;28;1292;-69
2023/02/14 00:37:18;;;;;;;;;;;;;;;23.87;29.33;96493.09;4968423;28;1369;-69
2023/02/14 00:39:43;;;;;;;;;;;;;;;23.87;29.40;96498.47;4956335;28;1478;-74
2023/02/14 00:42:08;;;;;;;;;;;;;;;23.88;29.38;96491.25;4951211;28;1391;-69
2023/02/14 00:44:34;;;;;;;;;;;;;;;23.87;29.37;96486.94;4949520;28;1898;-68
2023/02/14 00:46:59;;;;;;;;;;;;;;;23.87;29.53;96487.75;4961783;28;1546;-69
2023/02/14 00:49:24;;;;;;;;;;;;;;;23.89;29.72;96488.41;4971308;28;1693;-69
2023/02/14 00:51:50;;;;;;;;;;;;;;;23.86;29.92;96487.94;4969270;28;1441;-69
2023/02/14 00:54:15;;;;;;;;;;;;;;;23.89;29.80;96485.72;4960772;28;1435;-68
2023/02/14 00:56:40;;;;;;;;;;;;;;;23.89;29.80;96475.00;4972149;28;1339;-69
2023/02/14 00:59:06;;;;;;;;;;;;;;;23.90;29.87;96473.97;4970099;28;1394;-68
2023/02/14 01:01:31;;;;;;;;;;;;;;;23.91;29.99;96458.72;4967867;28;1533;-67
2023/02/14 01:03:57;;;;;;;;;;;;;;;23.91;29.82;96459.56;4955115;28;1459;-68
2023/02/14 01:06:23;;;;;;;;;;;;;;;23.91;29.96;96462.25;4953706;28;1956;-70
2023/02/14 01:08:48;;;;;;;;;;;;;;;23.72;30.15;96436.06;4956649;28;1505;-67
2023/02/14 01:11:18;;;;;;;;;;;;;;;23.84;30.43;96469.38;4964473;28;1501;-68
2023/02/14 01:13:43;;;;;;;;;;;;;;;23.87;30.38;96465.47;4987848;28;1568;-68
2023/02/14 01:16:10;;;;;;;;;;;;;;;23.88;30.96;96467.13;4954782;28;1403;-70
2023/02/14 01:18:36;;;;;;;;;;;;;;;24.23;30.45;96468.91;4960144;28;1541;-69
2023/02/14 01:21:13;;;;;;;;;;;;;;;24.35;30.34;96458.50;4957800;28;1459;-67
2023/02/14 01:23:38;;;;;;;;;;;;;;;24.42;30.18;96470.13;4955260;28;1447;-69
2023/02/14 01:26:07;;;;;;;;;;;;;;;24.48;30.03;96462.31;4959992;28;1968;-68
2023/02/14 01:28:33;;;;;;;;;;;;;;;24.49;30.00;96442.53;4953675;28;1437;-69
2023/02/14 01:31:04;;;;;;;;;;;;;;;24.45;29.92;96448.28;4956457;28;1243;-68
2023/02/14 01:33:30;;;;;;;;;;;;;;;24.26;30.12;96448.94;4955561;28;1383;-68
2023/02/14 01:35:55;;;;;;;;;;;;;;;24.17;30.43;96455.47;4954644;28;1419;-68
2023/02/14 01:38:20;;;;;;;;;;;;;;;23.98;30.47;96435.47;4969010;28;1488;-73
2023/02/14 01:40:45;;;;;;;;;;;;;;;24.07;30.66;96445.06;4947899;28;1442;-69
2023/02/14 01:43:14;;;;;;;;;;;;;;;24.05;30.64;96439.06;4960741;28;1407;-69
2023/02/14 01:45:40;;;;;;;;;;;;;;;24.04;30.90;96432.03;4964648;28;1903;-68
2023/02/14 01:48:05;;;;;;;;;;;;;;;24.04;31.07;96433.88;4967004;28;1326;-68
2023/02/14 01:50:33;;;;;;;;;;;;;;;24.00;31.13;96428.91;4946444;28;1402;-68
2023/02/14 01:53:01;;;;;;;;;;;;;;;24.01;30.82;96422.53;4956707;28;1489;-68
2023/02/14 01:55:28;;;;;;;;;;;;;;;23.99;31.27;96421.06;4971173;28;1330;-69
2023/02/14 01:58:00;;;;;;;;;;;;;;;23.98;31.29;96409.50;4960268;28;1339;-69
2023/02/14 02:03:12;;;;;;;;;;;;;;;23.98;31.44;96414.88;4956160;28;1501;-69
2023/02/14 02:05:40;;;;;;;;;;;;;;;24.01;31.26;96417.16;4956156;28;1973;-69
2023/02/14 02:08:06;;;;;;;;;;;;;;;23.97;31.54;96415.91;4972392;28;1362;-70
2023/02/14 02:10:31;;;;;;;;;;;;;;;23.99;31.35;96415.69;4982597;28;1414;-69
2023/02/14 02:12:58;;;;;;;;;;;;;;;23.94;31.67;96418.97;4967717;28;1438;-69
2023/02/14 02:15:25;;;;;;;;;;;;;;;23.96;31.56;96427.66;4962503;28;1381;-69
2023/02/14 02:18:04;;;;;;;;;;;;;;;23.97;31.55;96420.44;4970218;28;1473;-70
2023/02/14 02:20:44;;;;;;;;;;;;;;;23.97;31.81;96415.91;4965000;28;1445;-69
2023/02/14 02:23:21;;;;;;;;;;;;;;;23.99;31.76;96416.53;4965863;28;1436;-70
2023/02/14 02:25:55;;;;;;;;;;;;;;;24.01;31.73;96413.66;4946854;28;1910;-72
2023/02/14 02:28:30;;;;;;;;;;;;;;;24.04;31.41;96396.34;4969076;28;1426;-73
2023/02/14 02:31:13;;;;;;;;;;;;;;;24.00;31.70;96394.06;4967849;28;1411;-72
2023/02/14 02:33:44;;;;;;;;;;;;;;;23.99;31.46;96378.16;4973418;28;1426;-72
2023/02/14 02:36:31;;;;;;;;;;;;;;;24.00;31.67;96377.16;4946073;28;1350;-72
2023/02/14 02:38:57;;;;;;;;;;;;;;;23.97;31.76;96386.41;4962880;28;1430;-71
2023/02/14 02:41:31;;;;;;;;;;;;;;;23.97;31.61;96374.88;4955717;28;1422;-70
2023/02/14 02:44:10;;;;;;;;;;;;;;;23.99;31.78;96367.44;4958317;28;1435;-72
2023/02/14 02:46:48;;;;;;;;;;;;;;;24.00;31.68;96374.47;4967281;28;1429;-71
2023/02/14 02:55:27;;;;;;;;;;;;;;;23.99;32.01;96373.66;4966351;28;1374;-71
2023/02/14 02:57:53;;;;;;;;;;;;;;;23.98;32.09;96371.16;4962508;28;1438;-72
2023/02/14 03:00:20;;;;;;;;;;;;;;;23.98;32.10;96376.50;4963597;28;1430;-70
2023/02/14 03:05:35;;;;;;;;;;;;;;;24.00;32.13;96388.69;4975544;28;1886;-73
2023/02/14 03:08:01;;;;;;;;;;;;;;;24.02;32.18;96377.75;4959537;28;1552;-74
2023/02/14 03:10:29;;;;;;;;;;;;;;;24.02;32.29;96375.94;4953391;28;1388;-73
2023/02/14 03:13:11;;;;;;;;;;;;;;;24.02;32.35;96373.25;4957926;28;1379;-73
2023/02/14 03:15:36;;;;;;;;;;;;;;;24.03;32.50;96374.09;4970176;28;1474;-73
2023/02/14 03:18:05;;;;;;;;;;;;;;;24.02;31.98;96389.34;4966572;28;1397;-73
2023/02/14 03:20:31;;;;;;;;;;;;;;;24.01;32.37;96379.63;4972603;28;1544;-74
2023/02/14 03:22:56;;;;;;;;;;;;;;;24.00;32.23;96369.94;4966537;28;1383;-73
2023/02/14 03:25:25;;;;;;;;;;;;;;;24.02;32.07;96364.38;4973631;28;1975;-74
2023/02/14 03:27:58;;;;;;;;;;;;;;;23.99;32.43;96365.59;4973040;28;1497;-74
2023/02/14 03:30:26;;;;;;;;;;;;;;;23.99;32.47;96360.25;4959334;28;1391;-74
2023/02/14 03:33:00;;;;;;;;;;;;;;;23.97;32.54;96348.88;4948141;28;1094;-74
2023/02/14 03:35:25;;;;;;;;;;;;;;;23.98;32.40;96339.81;4976131;28;1279;-74
2023/02/14 03:38:03;;;;;;;;;;;;;;;23.97;32.65;96335.47;4972876;28;1457;-73
2023/02/14 03:40:35;;;;;;;;;;;;;;;23.98;32.59;96350.53;4970420;28;1351;-72
2023/02/14 03:43:12;;;;;;;;;;;;;;;23.96;32.62;96339.19;4963216;28;1410;-70
2023/02/14 03:45:44;;;;;;;;;;;;;;;23.95;32.74;96339.38;4948388;28;1903;-72
2023/02/14 03:48:11;;;;;;;;;;;;;;;23.99;32.65;96346.84;4957703;28;1469;-71
2023/02/14 03:50:37;;;;;;;;;;;;;;;24.01;32.52;96354.66;4974597;28;1383;-72
2023/02/14 03:53:04;;;;;;;;;;;;;;;24.01;32.71;96344.78;4967825;28;1413;-72
2023/02/14 03:55:33;;;;;;;;;;;;;;;24.03;32.58;96347.28;4952623;28;1425;-72
2023/02/14 03:58:05;;;;;;;;;;;;;;;24.04;32.56;96348.09;4970966;28;1505;-73
2023/02/14 04:00:32;;;;;;;;;;;;;;;24.04;32.75;96342.72;4957661;28;1430;-72
2023/02/14 04:03:00;;;;;;;;;;;;;;;24.02;32.85;96332.19;4970019;28;1264;-74
2023/02/14 04:05:26;;;;;;;;;;;;;;;23.92;33.12;96324.50;4974077;28;1957;-74
2023/02/14 04:07:54;;;;;;;;;;;;;;;24.14;32.59;96322.59;4960887;28;1438;-72
2023/02/14 04:10:20;;;;;;;;;;;;;;;24.06;32.93;96327.28;4972931;28;1458;-70
2023/02/14 04:12:45;;;;;;;;;;;;;;;24.06;32.67;96320.06;4974694;28;1350;-68
2023/02/14 04:15:11;;;;;;;;;;;;;;;24.04;32.43;96323.97;4989290;28;1349;-69
2023/02/14 04:20:21;;;;;;;;;;;;;;;22.89;24.64;96333.75;4959756;28;1258;-68
2023/02/14 04:22:46;;;;;;;;;;;;;;;19.57;24.11;96338.19;4967736;28;1354;-70
2023/02/14 04:25:11;;;;;;;;;;;;;;;19.23;26.61;96325.84;4961135;28;1958;-68
2023/02/14 04:27:37;;;;;;;;;;;;;;;18.22;26.04;96321.38;4975422;28;1485;-68
2023/02/14 04:30:02;;;;;;;;;;;;;;;17.88;25.36;96318.69;4955501;28;1407;-67
2023/02/14 04:32:27;;;;;;;;;;;;;;;17.13;25.72;96327.00;4959923;28;1529;-67
2023/02/14 04:34:53;;;;;;;;;;;;;;;17.40;25.54;96325.28;4973439;28;1342;-67
2023/02/14 04:37:18;;;;;;;;;;;;;;;16.95;25.91;96323.53;4969289;28;1343;-68
2023/02/14 04:39:44;;;;;;;;;;;;;;;17.10;25.68;96322.00;4964310;28;1353;-68
2023/02/14 04:42:09;;;;;;;;;;;;;;;17.08;25.48;96324.00;4948179;28;1327;-68
2023/02/14 04:44:37;;;;;;;;;;;;;;;16.63;25.55;96323.00;4954841;28;1903;-68
2023/02/14 04:47:02;;;;;;;;;;;;;;;16.94;25.97;96313.91;4956539;28;1338;-68
2023/02/14 04:49:27;;;;;;;;;;;;;;;17.16;28.15;96300.22;4957883;28;1414;-71
2023/02/14 04:51:53;;;;;;;;;;;;;;;17.60;27.75;96310.84;4960154;28;1416;-70
2023/02/14 04:54:18;;;;;;;;;;;;;;;18.13;28.28;96301.91;4955726;28;1579;-70
2023/02/14 04:56:43;;;;;;;;;;;;;;;19.27;28.06;96295.28;4970346;28;1350;-67
2023/02/14 04:59:09;;;;;;;;;;;;;;;20.02;27.60;96307.53;4959459;28;1315;-67
2023/02/14 05:01:34;;;;;;;;;;;;;;;20.42;27.42;96299.41;4968780;28;1302;-69
2023/02/14 05:03:59;;;;;;;;;;;;;;;20.70;26.99;96298.97;4950459;28;1248;-69
2023/02/14 05:06:24;;;;;;;;;;;;;;;20.48;26.21;96305.03;4961737;28;1880;-67
2023/02/14 05:08:50;;;;;;;;;;;;;;;20.50;25.91;96303.88;4972552;28;1370;-68
2023/02/14 05:11:15;;;;;;;;;;;;;;;20.54;27.08;96299.06;4965099;28;1514;-68
2023/02/14 05:13:40;;;;;;;;;;;;;;;20.89;27.01;96295.03;4960119;28;1421;-68
2023/02/14 05:16:06;;;;;;;;;;;;;;;21.07;27.00;96295.59;4956017;28;1417;-68
2023/02/14 05:18:31;;;;;;;;;;;;;;;21.24;27.01;96301.63;4967475;28;1454;-68
2023/02/14 05:20:56;;;;;;;;;;;;;;;21.36;26.96;96298.56;4954248;29;1356;-67
2023/02/14 05:23:21;;;;;;;;;;;;;;;21.41;26.94;96299.72;4955773;28;905;-68
2023/02/14 05:25:47;;;;;;;;;;;;;;;21.50;27.20;96297.81;4949681;28;1906;-68
2023/02/14 05:28:13;;;;;;;;;;;;;;;21.56;27.17;96294.41;4950332;28;1179;-67
2023/02/14 05:30:38;;;;;;;;;;;;;;;21.64;27.22;96294.34;4954174;28;1355;-65
2023/02/14 05:33:03;;;;;;;;;;;;;;;21.71;27.21;96302.44;4955527;29;885;-66
2023/02/14 05:35:29;;;;;;;;;;;;;;;21.77;27.09;96296.38;4955232;29;873;-66
2023/02/14 05:37:54;;;;;;;;;;;;;;;21.82;27.23;96295.84;4945637;28;1138;-66
2023/02/14 05:40:20;;;;;;;;;;;;;;;21.86;26.98;96289.09;4955048;28;1016;-66
2023/02/14 05:42:45;;;;;;;;;;;;;;;21.91;27.17;96286.72;4955346;29;949;-66
2023/02/14 05:45:10;;;;;;;;;;;;;;;21.94;27.16;96278.34;4954976;29;1887;-66
2023/02/14 05:47:36;;;;;;;;;;;;;;;21.96;27.14;96284.34;4954997;28;888;-66
2023/02/14 05:50:01;;;;;;;;;;;;;;;21.99;27.17;96287.47;4945212;29;1081;-67
2023/02/14 05:52:26;;;;;;;;;;;;;;;22.01;27.13;96281.97;4954944;29;916;-66
2023/02/14 05:54:51;;;;;;;;;;;;;;;22.05;27.29;96290.44;4955161;29;798;-66
2023/02/14 05:57:17;;;;;;;;;;;;;;;22.05;27.27;96282.41;4969688;28;1193;-66
2023/02/14 05:59:42;;;;;;;;;;;;;;;22.08;27.15;96290.88;4950701;29;1337;-66
2023/02/14 06:02:08;;;;;;;;;;;;;;;22.10;27.41;96288.88;4948182;28;1154;-66
2023/02/14 06:04:33;;;;;;;;;;;;;;;22.14;27.24;96292.84;4969544;28;1950;-67
2023/02/14 06:06:59;;;;;;;;;;;;;;;22.17;27.28;96292.50;4954747;29;1417;-66
2023/02/14 06:09:24;;;;;;;;;;;;;;;22.17;27.23;96291.63;4954826;29;802;-67
2023/02/14 06:11:49;;;;;;;;;;;;;;;22.20;27.38;96291.31;4945085;29;1073;-67
2023/02/14 06:14:15;;;;;;;;;;;;;;;22.20;27.46;96302.81;4954414;29;1111;-67
2023/02/14 06:16:40;;;;;;;;;;;;;;;22.24;27.25;96303.28;4954954;29;790;-66
2023/02/14 06:19:05;;;;;;;;;;;;;;;22.28;27.46;96309.06;4954706;28;818;-66
2023/02/14 06:21:31;;;;;;;;;;;;;;;22.27;27.26;96313.59;4954815;28;912;-67
2023/02/14 06:23:56;;;;;;;;;;;;;;;22.31;27.43;96306.03;4947589;29;1287;-67
2023/02/14 06:26:21;;;;;;;;;;;;;;;22.32;27.44;96307.72;4958567;29;1971;-66
2023/02/14 06:28:51;;;;;;;;;;;;;;;22.35;27.38;96307.34;4957582;28;1320;-67
2023/02/14 06:31:17;;;;;;;;;;;;;;;22.36;27.29;96303.63;4973358;28;1303;-66
2023/02/14 06:33:42;;;;;;;;;;;;;;;22.38;27.31;96299.78;4958442;28;770;-66
2023/02/14 06:36:08;;;;;;;;;;;;;;;22.41;27.16;96298.56;4949337;28;1156;-66
2023/02/14 06:38:33;;;;;;;;;;;;;;;22.41;27.19;96302.06;4958387;29;944;-66
2023/02/14 06:41:05;;;;;;;;;;;;;;;22.44;27.35;96306.22;4958306;29;943;-66
2023/02/14 06:43:30;;;;;;;;;;;;;;;22.48;27.15;96309.34;4958334;29;866;-66
2023/02/14 06:45:56;;;;;;;;;;;;;;;22.49;27.40;96300.34;4948737;28;1907;-67
2023/02/14 06:48:24;;;;;;;;;;;;;;;22.49;27.52;96309.19;4972914;28;1203;-68
2023/02/14 06:50:51;;;;;;;;;;;;;;;22.51;27.25;96304.44;4973142;28;1232;-67
2023/02/14 06:53:16;;;;;;;;;;;;;;;22.51;27.25;96300.94;4958170;28;897;-66
2023/02/14 06:55:41;;;;;;;;;;;;;;;22.54;27.25;96298.75;4958017;28;881;-66
2023/02/14 06:58:07;;;;;;;;;;;;;;;22.54;27.43;96298.75;4946842;29;1324;-66
2023/02/14 07:00:32;;;;;;;;;;;;;;;22.57;27.42;96286.81;4958211;29;807;-67
2023/02/14 07:02:57;;;;;;;;;;;;;;;22.57;27.14;96286.81;4956705;29;1418;-65
2023/02/14 07:05:22;;;;;;;;;;;;;;;22.60;27.30;96281.97;4958006;28;1954;-67
2023/02/14 07:07:48;;;;;;;;;;;;;;;22.61;27.36;96286.28;4956517;28;1379;-66
2023/02/14 07:10:13;;;;;;;;;;;;;;;22.63;27.28;96280.75;4949422;28;971;-66
2023/02/14 07:12:38;;;;;;;;;;;;;;;22.64;27.35;96277.88;4957880;29;961;-67
2023/02/14 07:15:05;;;;;;;;;;;;;;;22.65;27.30;96278.69;4956633;29;1314;-67
2023/02/14 07:17:30;;;;;;;;;;;;;;;22.67;27.29;96290.06;4972573;28;1360;-67
2023/02/14 07:19:56;;;;;;;;;;;;;;;22.66;27.27;96286.56;4949337;29;951;-68
2023/02/14 07:22:21;;;;;;;;;;;;;;;22.68;27.16;96283.66;4971159;28;1173;-67
2023/02/14 07:24:46;;;;;;;;;;;;;;;22.71;27.37;96287.81;4957651;29;2378;-68
2023/02/14 07:27:11;;;;;;;;;;;;;;;22.73;27.08;96285.78;4972501;28;1422;-67
2023/02/14 07:29:37;;;;;;;;;;;;;;;22.71;27.25;96287.81;4957609;29;810;-67
2023/02/14 07:32:02;;;;;;;;;;;;;;;22.71;27.12;96285.97;4947706;28;1066;-67
2023/02/14 07:34:27;;;;;;;;;;;;;;;22.71;27.09;96285.97;4956471;28;865;-67
2023/02/14 07:36:53;;;;;;;;;;;;;;;22.76;27.07;96285.41;4957468;29;878;-67
2023/02/14 07:39:18;;;;;;;;;;;;;;;22.76;27.20;96290.78;4957679;29;889;-68
2023/02/14 07:41:43;;;;;;;;;;;;;;;22.77;27.08;96281.72;4957421;29;881;-67
2023/02/14 07:44:08;;;;;;;;;;;;;;;22.76;27.14;96285.41;4947445;29;971;-67
2023/02/14 07:46:34;;;;;;;;;;;;;;;22.79;27.10;96295.75;4957250;28;1906;-67
2023/02/14 07:48:59;;;;;;;;;;;;;;;22.79;27.01;96298.41;4957530;29;830;-67
2023/02/14 07:51:24;;;;;;;;;;;;;;;22.82;27.14;96306.88;4955821;29;1205;-67
2023/02/14 07:53:50;;;;;;;;;;;;;;;22.84;26.99;96296.84;4952210;29;1201;-68
2023/02/14 07:56:15;;;;;;;;;;;;;;;22.84;27.20;96304.03;4952215;28;1172;-66
2023/02/14 07:58:40;;;;;;;;;;;;;;;22.85;27.15;96313.72;4956917;29;964;-66
2023/02/14 08:01:05;;;;;;;;;;;;;;;22.87;27.08;96317.88;4957237;29;842;-66
2023/02/14 08:03:31;;;;;;;;;;;;;;;22.91;27.05;96318.34;4956926;28;897;-66
2023/02/14 08:05:56;;;;;;;;;;;;;;;22.88;27.03;96319.53;4946848;29;1902;-66
2023/02/14 08:08:23;;;;;;;;;;;;;;;22.91;27.03;96321.00;4956699;29;1374;-67
2023/02/14 08:10:48;;;;;;;;;;;;;;;22.90;27.02;96320.16;4956680;28;866;-66
2023/02/14 08:13:13;;;;;;;;;;;;;;;22.91;26.96;96318.34;4956648;29;865;-67
2023/02/14 08:18:22;;;;;;;;;;;;;;;22.93;27.01;96321.63;4948347;29;1261;-66
2023/02/14 08:20:50;;;;;;;;;;;;;;;22.95;27.04;96327.66;4955019;29;1379;-66
2023/02/14 08:23:16;;;;;;;;;;;;;;;22.95;26.98;96329.50;4956576;28;877;-67
2023/02/14 08:25:42;;;;;;;;;;;;;;;22.96;26.96;96326.63;4956151;29;1971;-66
2023/02/14 08:28:08;;;;;;;;;;;;;;;22.96;27.17;96329.31;4947083;28;1087;-66
2023/02/14 08:30:35;;;;;;;;;;;;;;;22.98;27.01;96340.69;4955996;28;954;-66
2023/02/14 08:33:00;;;;;;;;;;;;;;;22.99;27.03;96336.97;4971030;28;1213;-66
2023/02/14 08:35:25;;;;;;;;;;;;;;;22.99;27.04;96328.94;4956143;29;857;-66
2023/02/14 08:37:50;;;;;;;;;;;;;;;22.99;26.91;96320.91;4956064;29;893;-66
2023/02/14 08:40:16;;;;;;;;;;;;;;;23.00;26.92;96322.59;4946345;29;1147;-66
2023/02/14 08:42:41;;;;;;;;;;;;;;;23.01;26.79;96320.72;4956325;29;822;-67
2023/02/14 08:45:06;;;;;;;;;;;;;;;23.01;26.75;96337.63;4955716;28;1956;-66
2023/02/14 08:47:37;;;;;;;;;;;;;;;23.01;26.94;96348.31;4955912;29;822;-67
2023/02/14 08:50:05;;;;;;;;;;;;;;;23.00;26.78;96330.63;4955010;28;833;-67
2023/02/14 08:52:31;;;;;;;;;;;;;;;23.03;26.96;96334.78;4948740;28;1123;-66
2023/02/14 08:54:56;;;;;;;;;;;;;;;23.03;26.91;96340.13;4954642;29;1200;-66
2023/02/14 08:57:21;;;;;;;;;;;;;;;23.03;26.90;96338.28;4956225;29;783;-67
2023/02/14 08:59:47;;;;;;;;;;;;;;;23.05;26.90;96344.28;4970629;28;1371;-66
2023/02/14 09:02:13;;;;;;;;;;;;;;;23.06;26.77;96337.06;4945153;29;1189;-67
2023/02/14 09:04:38;;;;;;;;;;;;;;;23.05;26.97;96330.03;4955328;29;1895;-66
2023/02/14 09:07:03;;;;;;;;;;;;;;;23.06;26.94;96329.03;4955506;28;1190;-66
2023/02/14 09:09:29;;;;;;;;;;;;;;;23.03;26.83;96330.25;4955669;28;799;-67
2023/02/14 09:11:55;;;;;;;;;;;;;;;23.03;26.95;96332.91;4955932;29;783;-66
2023/02/14 09:14:20;;;;;;;;;;;;;;;23.06;26.95;96340.56;4945670;28;1055;-66
2023/02/14 09:16:46;;;;;;;;;;;;;;;23.05;27.02;96319.31;4954314;29;1202;-66
2023/02/14 09:19:11;;;;;;;;;;;;;;;23.07;26.93;96330.69;4954377;29;1292;-67
2023/02/14 09:21:36;;;;;;;;;;;;;;;23.07;26.94;96317.28;4955675;28;870;-68
2023/02/14 09:24:02;;;;;;;;;;;;;;;23.07;26.85;96322.66;4955593;29;940;-68
2023/02/14 09:26:27;;;;;;;;;;;;;;;23.09;26.91;96317.94;4945621;28;1906;-68
2023/02/14 09:28:53;;;;;;;;;;;;;;;23.07;27.04;96319.97;4955484;28;860;-67
2023/02/14 09:31:20;;;;;;;;;;;;;;;23.09;27.05;96320.63;4955724;28;872;-67
2023/02/14 09:33:47;;;;;;;;;;;;;;;23.10;26.94;96324.94;4955372;28;950;-67
2023/02/14 09:38:56;;;;;;;;;;;;;;;23.07;26.96;96314.63;4955389;29;1192;-66
2023/02/14 09:41:21;;;;;;;;;;;;;;;23.07;26.84;96304.75;4955125;29;817;-66
2023/02/14 09:43:58;;;;;;;;;;;;;;;23.07;26.88;96314.63;4955163;29;850;-67
2023/02/14 09:46:25;;;;;;;;;;;;;;;23.07;26.87;96306.59;4955094;29;1911;-66
2023/02/14 09:48:52;;;;;;;;;;;;;;;23.07;27.07;96304.75;4943856;29;1336;-66
2023/02/14 09:51:19;;;;;;;;;;;;;;;23.07;26.98;96310.09;4953669;29;1321;-66
2023/02/14 09:53:48;;;;;;;;;;;;;;;23.09;26.88;96310.75;4954982;28;794;-67
2023/02/14 09:56:43;;;;;;;;;;;;;;;23.09;26.95;96305.38;4954674;28;802;-66
2023/02/14 09:59:14;;;;;;;;;;;;;;;23.09;27.08;96302.72;4948649;28;1157;-66
2023/02/14 10:01:41;;;;;;;;;;;;;;;23.09;26.97;96294.69;4954855;28;967;-65
2023/02/14 10:04:36;;;;;;;;;;;;;;;23.11;26.96;96294.50;4954868;28;873;-66
2023/02/14 10:07:11;;;;;;;;;;;;;;;23.10;27.01;96299.00;4957977;28;1338;-66
2023/02/14 10:09:54;;;;;;;;;;;;;;;23.09;26.87;96300.03;4952236;28;834;-66
2023/02/14 10:12:41;;;;;;;;;;;;;;;23.09;26.78;96297.34;4948782;29;1486;-66
2023/02/14 10:15:11;;;;;;;;;;;;;;;23.10;26.94;96290.97;4954783;28;1081;-66
2023/02/14 10:17:41;;;;;;;;;;;;;;;23.12;26.89;96283.59;4954713;28;906;-66
2023/02/14 10:20:19;;;;;;;;;;;;;;;23.09;26.98;96286.66;4954666;28;959;-66
2023/02/14 10:22:48;;;;;;;;;;;;;;;23.08;27.10;96290.34;4944910;28;1091;-66
2023/02/14 10:25:13;;;;;;;;;;;;;;;23.11;26.83;96284.63;4954597;28;1985;-66
2023/02/14 10:27:41;;;;;;;;;;;;;;;23.12;27.03;96285.44;4954641;29;811;-66
2023/02/14 10:30:12;;;;;;;;;;;;;;;23.12;27.00;96280.91;4969393;28;1389;-66
2023/02/14 10:32:46;;;;;;;;;;;;;;;23.14;27.01;96286.09;4949858;28;1081;-67
2023/02/14 10:35:18;;;;;;;;;;;;;;;23.13;26.96;96282.56;4949721;28;1099;-66
2023/02/14 10:37:59;;;;;;;;;;;;;;;23.13;26.98;96277.19;4954569;29;815;-66
2023/02/14 10:40:33;;;;;;;;;;;;;;;23.13;26.80;96277.19;4953281;29;1194;-67
2023/02/14 10:43:17;;;;;;;;;;;;;;;23.14;26.97;96280.72;4954484;29;954;-67
2023/02/14 10:45:54;;;;;;;;;;;;;;;23.12;26.85;96270.19;4944637;28;1960;-67
2023/02/14 10:48:22;;;;;;;;;;;;;;;23.13;27.00;96276.38;4954572;28;853;-67
2023/02/14 10:51:00;;;;;;;;;;;;;;;23.12;27.13;96275.56;4969189;28;1188;-66
2023/02/14 10:53:31;;;;;;;;;;;;;;;23.10;27.01;96280.25;4954379;28;862;-66
2023/02/14 10:56:06;;;;;;;;;;;;;;;23.13;26.96;96285.22;4944780;28;1160;-74
2023/02/14 10:58:35;;;;;;;;;;;;;;;23.12;26.91;96278.22;4954214;28;1050;-66
2023/02/14 11:01:02;;;;;;;;;;;;;;;23.13;27.04;96266.50;4954314;29;847;-67
2023/02/14 11:03:28;;;;;;;;;;;;;;;23.13;26.99;96266.50;4954278;29;874;-66
2023/02/14 11:05:53;;;;;;;;;;;;;;;23.15;27.00;96265.50;4954488;29;1915;-66
2023/02/14 11:08:31;;;;;;;;;;;;;;;23.13;27.04;96268.34;4945666;28;1419;-66
2023/02/14 11:11:06;;;;;;;;;;;;;;;23.12;27.16;96264.03;4957958;28;865;-66
2023/02/14 11:13:35;;;;;;;;;;;;;;;23.13;27.06;96274.53;4957941;29;806;-66
2023/02/14 11:16:02;;;;;;;;;;;;;;;23.13;27.04;96255.78;4957819;28;907;-66
2023/02/14 11:18:31;;;;;;;;;;;;;;;23.12;26.89;96259.50;4949362;29;1168;-66
2023/02/14 11:21:03;;;;;;;;;;;;;;;23.15;26.92;96265.50;4972105;28;1295;-66
2023/02/14 11:23:31;;;;;;;;;;;;;;;23.16;26.82;96261.78;4972511;28;1361;-66
2023/02/14 11:25:58;;;;;;;;;;;;;;;23.17;26.99;96266.97;4957539;28;1976;-67
2023/02/14 11:28:24;;;;;;;;;;;;;;;23.16;26.90;96259.09;4957615;28;814;-66
2023/02/14 11:30:50;;;;;;;;;;;;;;;23.14;26.86;96253.97;4947704;28;973;-67
2023/02/14 11:33:28;;;;;;;;;;;;;;;23.13;27.02;96253.09;4957451;29;967;-72
2023/02/14 11:35:54;;;;;;;;;;;;;;;23.14;26.99;96251.28;4957497;28;822;-66
2023/02/14 11:38:25;;;;;;;;;;;;;;;23.16;26.88;96251.06;4957462;29;799;-66
2023/02/14 11:40:55;;;;;;;;;;;;;;;23.15;27.15;96254.78;4952609;29;1075;-66
2023/02/14 11:43:29;;;;;;;;;;;;;;;23.13;27.01;96247.75;4952361;28;1086;-66
2023/02/14 11:46:05;;;;;;;;;;;;;;;23.17;26.96;96240.19;4957284;28;1969;-66
2023/02/14 11:48:31;;;;;;;;;;;;;;;23.09;26.96;96232.28;4957264;28;917;-66
2023/02/14 11:51:03;;;;;;;;;;;;;;;23.12;27.04;96235.41;4957232;28;814;-66
2023/02/14 11:53:32;;;;;;;;;;;;;;;23.15;26.96;96222.66;4961889;28;1306;-67
2023/02/14 11:55:59;;;;;;;;;;;;;;;23.16;27.08;96233.16;4957068;28;794;-67
2023/02/14 11:58:27;;;;;;;;;;;;;;;23.18;27.02;96220.41;4957040;28;850;-66
2023/02/14 12:00:53;;;;;;;;;;;;;;;23.18;26.99;96230.31;4956965;29;929;-66
2023/02/14 12:03:18;;;;;;;;;;;;;;;23.16;26.81;96216.28;4952387;28;1022;-66
2023/02/14 12:05:45;;;;;;;;;;;;;;;23.16;26.97;96211.75;4966451;28;1971;-67
2023/02/14 12:08:11;;;;;;;;;;;;;;;23.16;27.03;96218.94;4956600;29;1310;-65
2023/02/14 12:10:37;;;;;;;;;;;;;;;23.17;26.79;96197.34;4955882;28;1490;-69
2023/02/14 12:13:02;;;;;;;;;;;;;;;23.17;27.08;96197.34;4971575;28;1389;-66
2023/02/14 12:15:37;;;;;;;;;;;;;;;23.15;26.95;96199.38;4946963;29;1138;-67
2023/02/14 12:18:20;;;;;;;;;;;;;;;23.19;26.90;96199.81;4956423;28;1116;-66
2023/02/14 12:21:04;;;;;;;;;;;;;;;23.13;26.98;96196.91;4956037;28;882;-68
2023/02/14 12:23:32;;;;;;;;;;;;;;;23.13;26.98;96210.28;4956670;28;842;-67
2023/02/14 12:26:11;;;;;;;;;;;;;;;23.13;26.89;96186.19;4952971;29;1984;-68
2023/02/14 12:28:44;;;;;;;;;;;;;;;23.17;27.01;96200.03;4951275;28;1161;-67
2023/02/14 12:31:10;;;;;;;;;;;;;;;23.18;26.89;96192.81;4956536;28;802;-68
2023/02/14 12:33:38;;;;;;;;;;;;;;;23.18;26.96;96187.47;4956778;28;867;-66
2023/02/14 12:36:03;;;;;;;;;;;;;;;23.17;26.86;96186.66;4956711;28;942;-67
2023/02/14 12:38:32;;;;;;;;;;;;;;;23.19;27.06;96194.47;4961304;28;1264;-67
2023/02/14 12:41:03;;;;;;;;;;;;;;;23.18;27.05;96174.91;4971035;28;1279;-66
2023/02/14 12:43:49;;;;;;;;;;;;;;;23.16;27.06;96192.19;4956189;29;791;-66
2023/02/14 12:46:33;;;;;;;;;;;;;;;23.17;27.03;96188.47;4970975;28;1969;-67
2023/02/14 12:48:58;;;;;;;;;;;;;;;23.19;26.81;96184.59;4951456;28;905;-67
2023/02/14 12:51:41;;;;;;;;;;;;;;;23.17;27.09;96192.00;4950963;29;1236;-66
2023/02/14 12:54:09;;;;;;;;;;;;;;;23.18;27.00;96188.28;4956091;28;838;-67
2023/02/14 12:56:50;;;;;;;;;;;;;;;23.19;26.89;96189.13;4956065;29;853;-67
2023/02/14 12:59:24;;;;;;;;;;;;;;;23.18;26.99;96177.59;4956055;28;790;-67
2023/02/14 13:01:55;;;;;;;;;;;;;;;23.20;26.84;96185.44;4946240;29;1035;-67
2023/02/14 13:04:43;;;;;;;;;;;;;;;23.19;26.78;96175.72;4970854;28;1189;-68
2023/02/14 13:07:14;;;;;;;;;;;;;;;23.19;27.02;96178.41;4955829;29;1359;-66
2023/02/14 13:09:47;;;;;;;;;;;;;;;23.21;26.84;96179.88;4970565;28;1418;-66
2023/02/14 13:12:48;;;;;;;;;;;;;;;23.21;27.00;96187.91;4944811;29;1241;-66
2023/02/14 13:15:22;;;;;;;;;;;;;;;23.20;26.88;96170.19;4972880;28;1291;-66
2023/02/14 13:17:50;;;;;;;;;;;;;;;23.20;26.94;96164.03;4958152;28;989;-66
2023/02/14 13:20:23;;;;;;;;;;;;;;;23.18;26.96;96166.88;4955785;29;877;-66
2023/02/14 13:22:49;;;;;;;;;;;;;;;23.19;27.02;96168.53;4950968;28;1068;-67
2023/02/14 13:25:30;;;;;;;;;;;;;;;23.20;27.00;96164.84;4950224;29;1910;-70